createdAt,value
2019-04-02T00:00:10.539Z,12.82
2019-04-02T00:01:10.498Z,12.8
2019-04-02T00:02:11.626Z,12.8
2019-04-02T00:03:10.556Z,12.79
2019-04-02T00:04:10.483Z,12.77
2019-04-02T00:05:10.466Z,12.74
2019-04-02T00:06:10.511Z,12.82
2019-04-02T00:07:10.494Z,12.79
2019-04-02T00:08:10.489Z,12.77
2019-04-02T00:09:10.504Z,12.74
2019-04-02T00:10:10.459Z,12.73
2019-04-02T00:11:10.494Z,12.76
2019-04-02T00:12:10.466Z,12.74
2019-04-02T00:13:10.503Z,12.74
2019-04-02T00:14:10.495Z,12.74
2019-04-02T00:15:10.454Z,12.73
2019-04-02T00:16:12.745Z,12.72
2019-04-02T00:17:10.828Z,12.7
2019-04-02T00:18:10.506Z,12.73
2019-04-02T00:19:10.482Z,12.72
2019-04-02T00:20:10.471Z,12.67
2019-04-02T00:21:10.467Z,12.62
2019-04-02T00:22:10.472Z,12.63
2019-04-02T00:23:10.564Z,12.63
2019-04-02T00:24:10.529Z,12.6
2019-04-02T00:25:10.499Z,12.55
2019-04-02T00:26:10.509Z,12.56
2019-04-02T00:27:10.493Z,12.56
2019-04-02T00:28:10.464Z,12.57
2019-04-02T00:29:10.783Z,12.59
2019-04-02T00:30:10.501Z,12.59
2019-04-02T00:31:13.872Z,12.59
2019-04-02T00:32:11.985Z,12.6
2019-04-02T00:33:10.573Z,12.56
2019-04-02T00:34:10.697Z,12.56
2019-04-02T00:35:10.534Z,12.55
2019-04-02T00:36:10.458Z,12.56
2019-04-02T00:37:10.440Z,12.53
2019-04-02T00:38:10.434Z,12.53
2019-04-02T00:39:10.471Z,12.51
2019-04-02T00:40:10.461Z,12.49
2019-04-02T00:41:10.427Z,12.48
2019-04-02T00:42:11.487Z,12.46
2019-04-02T00:43:10.470Z,12.46
2019-04-02T00:44:10.469Z,12.41
2019-04-02T00:45:10.434Z,12.41
2019-04-02T00:46:10.411Z,12.38
2019-04-02T00:47:10.419Z,12.38
2019-04-02T00:48:10.432Z,12.37
2019-04-02T00:49:10.450Z,12.37
2019-04-02T00:50:13.077Z,12.32
2019-04-02T00:51:10.452Z,12.29
2019-04-02T00:52:10.413Z,12.29
2019-04-02T00:53:10.485Z,12.31
2019-04-02T00:54:10.402Z,12.32
2019-04-02T00:55:10.477Z,12.27
2019-04-02T00:56:10.478Z,12.29
2019-04-02T00:57:10.401Z,12.25
2019-04-02T00:58:10.406Z,12.25
2019-04-02T00:59:10.440Z,12.23
2019-04-02T01:00:10.431Z,12.23
2019-04-02T01:01:10.442Z,12.23
2019-04-02T01:02:10.398Z,12.21
2019-04-02T01:03:12.958Z,12.21
2019-04-02T01:04:10.843Z,12.21
2019-04-02T01:05:10.435Z,12.21
2019-04-02T01:06:10.468Z,12.24
2019-04-02T01:07:10.453Z,12.25
2019-04-02T01:08:10.394Z,12.28
2019-04-02T01:09:11.511Z,12.29
2019-04-02T01:10:10.431Z,12.28
2019-04-02T01:11:10.451Z,12.28
2019-04-02T01:12:10.491Z,12.25
2019-04-02T01:13:10.417Z,12.24
2019-04-02T01:14:10.453Z,12.23
2019-04-02T01:15:10.413Z,12.2
2019-04-02T01:16:10.688Z,12.17
2019-04-02T01:17:11.927Z,12.14
2019-04-02T01:18:10.834Z,12.18
2019-04-02T01:19:10.465Z,12.17
2019-04-02T01:20:10.481Z,12.17
2019-04-02T01:21:10.407Z,12.18
2019-04-02T01:22:10.414Z,12.11
2019-04-02T01:23:10.397Z,12.13
2019-04-02T01:24:10.375Z,12.1
2019-04-02T01:25:10.371Z,12.05
2019-04-02T01:26:10.378Z,12.03
2019-04-02T01:27:10.407Z,11.98
2019-04-02T01:28:10.412Z,12.03
2019-04-02T01:29:11.832Z,12.03
2019-04-02T01:30:10.460Z,12.01
2019-04-02T01:31:10.357Z,12.01
2019-04-02T01:32:10.415Z,12
2019-04-02T01:33:11.726Z,12
2019-04-02T01:34:10.450Z,12.01
2019-04-02T01:35:10.403Z,12.01
2019-04-02T01:36:10.392Z,12.01
2019-04-02T01:37:10.435Z,12
2019-04-02T01:38:10.533Z,11.97
2019-04-02T01:39:10.350Z,11.97
2019-04-02T01:40:10.371Z,11.96
2019-04-02T01:41:10.420Z,11.93
2019-04-02T01:42:10.331Z,11.97
2019-04-02T01:43:10.489Z,11.9
2019-04-02T01:44:10.372Z,11.89
2019-04-02T01:45:10.382Z,11.89
2019-04-02T01:46:10.408Z,11.86
2019-04-02T01:47:10.345Z,11.84
2019-04-02T01:48:10.341Z,11.82
2019-04-02T01:49:11.506Z,11.79
2019-04-02T01:50:10.333Z,11.76
2019-04-02T01:51:10.455Z,11.73
2019-04-02T01:52:10.392Z,11.72
2019-04-02T01:53:10.356Z,11.73
2019-04-02T01:54:10.433Z,11.7
2019-04-02T01:55:11.670Z,11.68
2019-04-02T01:56:10.343Z,11.66
2019-04-02T01:57:10.331Z,11.69
2019-04-02T01:58:10.378Z,11.7
2019-04-02T01:59:10.435Z,11.7
2019-04-02T02:00:10.440Z,11.76
2019-04-02T02:01:10.378Z,11.65
2019-04-02T02:02:10.373Z,11.7
2019-04-02T02:03:10.353Z,11.7
2019-04-02T02:04:10.380Z,11.69
2019-04-02T02:05:10.317Z,11.7
2019-04-02T02:06:12.500Z,11.75
2019-04-02T02:07:11.054Z,11.75
2019-04-02T02:08:10.345Z,11.75
2019-04-02T02:09:10.314Z,11.73
2019-04-02T02:10:10.361Z,11.75
2019-04-02T02:11:10.333Z,11.72
2019-04-02T02:12:10.416Z,11.7
2019-04-02T02:13:10.304Z,11.69
2019-04-02T02:14:10.316Z,11.72
2019-04-02T02:15:10.319Z,11.7
2019-04-02T02:16:10.346Z,11.69
2019-04-02T02:17:10.356Z,11.7
2019-04-02T02:18:10.330Z,11.68
2019-04-02T02:19:10.297Z,11.65
2019-04-02T02:20:10.377Z,11.66
2019-04-02T02:21:10.477Z,11.64
2019-04-02T02:22:10.596Z,11.54
2019-04-02T02:23:11.888Z,11.54
2019-04-02T02:24:10.338Z,11.54
2019-04-02T02:25:10.331Z,11.54
2019-04-02T02:26:10.349Z,11.52
2019-04-02T02:27:10.324Z,11.52
2019-04-02T02:28:10.361Z,11.51
2019-04-02T02:29:10.349Z,11.52
2019-04-02T02:30:10.311Z,11.51
2019-04-02T02:31:10.419Z,11.54
2019-04-02T02:32:10.341Z,11.55
2019-04-02T02:33:10.468Z,11.56
2019-04-02T02:34:10.406Z,11.54
2019-04-02T02:35:10.471Z,11.56
2019-04-02T02:36:10.958Z,11.56
2019-04-02T02:37:11.521Z,11.56
2019-04-02T02:38:11.974Z,11.56
2019-04-02T02:39:12.272Z,11.52
2019-04-02T02:40:11.565Z,11.56
2019-04-02T02:41:12.387Z,11.55
2019-04-02T02:42:13.433Z,11.54
2019-04-02T02:43:13.451Z,11.56
2019-04-02T02:44:13.764Z,11.55
2019-04-02T02:45:10.269Z,11.55
2019-04-02T02:46:10.283Z,11.54
2019-04-02T02:47:10.312Z,11.52
2019-04-02T02:48:10.293Z,11.52
2019-04-02T02:49:10.316Z,11.51
2019-04-02T02:50:10.321Z,11.39
2019-04-02T02:51:10.286Z,11.39
2019-04-02T02:52:10.554Z,11.37
2019-04-02T02:53:10.323Z,11.37
2019-04-02T02:54:10.282Z,11.37
2019-04-02T02:55:10.287Z,11.37
2019-04-02T02:56:10.387Z,11.32
2019-04-02T02:57:10.442Z,11.34
2019-04-02T02:58:10.288Z,11.37
2019-04-02T02:59:10.255Z,11.38
2019-04-02T03:00:10.645Z,11.38
2019-04-02T03:01:10.324Z,11.37
2019-04-02T03:02:10.353Z,11.35
2019-04-02T03:03:10.399Z,11.34
2019-04-02T03:04:11.592Z,11.37
2019-04-02T03:05:10.704Z,11.38
2019-04-02T03:06:10.300Z,11.37
2019-04-02T03:07:10.288Z,11.35
2019-04-02T03:08:10.250Z,11.37
2019-04-02T03:09:10.275Z,11.37
2019-04-02T03:10:12.726Z,11.37
2019-04-02T03:11:10.234Z,11.32
2019-04-02T03:12:11.290Z,11.35
2019-04-02T03:13:10.314Z,11.31
2019-04-02T03:14:10.440Z,11.32
2019-04-02T03:15:10.470Z,11.31
2019-04-02T03:16:12.161Z,11.27
2019-04-02T03:17:13.076Z,11.24
2019-04-02T03:18:13.556Z,11.18
2019-04-02T03:19:13.556Z,11.2
2019-04-02T03:20:10.252Z,11.14
2019-04-02T03:21:10.282Z,11.15
2019-04-02T03:22:10.409Z,11.11
2019-04-02T03:23:10.273Z,11.14
2019-04-02T03:24:10.270Z,11.18
2019-04-02T03:25:10.293Z,11.15
2019-04-02T03:26:10.242Z,11.12
2019-04-02T03:27:10.763Z,11.12
2019-04-02T03:28:10.247Z,11.08
2019-04-02T03:29:10.260Z,11.07
2019-04-02T03:30:10.265Z,11.07
2019-04-02T03:31:10.225Z,11.04
2019-04-02T03:32:11.972Z,11.04
2019-04-02T03:33:10.319Z,11.07
2019-04-02T03:34:12.339Z,11.08
2019-04-02T03:35:10.341Z,11.04
2019-04-02T03:36:10.228Z,11
2019-04-02T03:37:10.226Z,11.03
2019-04-02T03:38:10.221Z,11.03
2019-04-02T03:39:10.235Z,11.03
2019-04-02T03:40:10.329Z,11
2019-04-02T03:41:11.079Z,11.03
2019-04-02T03:42:11.570Z,11.03
2019-04-02T03:43:12.602Z,11.01
2019-04-02T03:44:13.927Z,11.01
2019-04-02T03:45:10.194Z,11.01
2019-04-02T03:46:10.196Z,11
2019-04-02T03:47:10.262Z,11.01
2019-04-02T03:48:10.285Z,11.01
2019-04-02T03:49:15.509Z,11
2019-04-02T03:50:10.282Z,10.97
2019-04-02T03:51:10.282Z,10.97
2019-04-02T03:52:10.301Z,10.96
2019-04-02T03:53:10.242Z,10.93
2019-04-02T03:54:10.283Z,10.96
2019-04-02T03:55:10.290Z,10.93
2019-04-02T03:56:10.298Z,10.93
2019-04-02T03:57:10.277Z,10.92
2019-04-02T03:58:10.211Z,10.92
2019-04-02T03:59:10.212Z,10.89
2019-04-02T04:00:10.318Z,10.9
2019-04-02T04:01:10.180Z,10.87
2019-04-02T04:02:10.169Z,10.84
2019-04-02T04:03:10.309Z,10.87
2019-04-02T04:04:10.217Z,10.87
2019-04-02T04:05:10.377Z,10.87
2019-04-02T04:06:11.132Z,10.83
2019-04-02T04:07:10.205Z,10.87
2019-04-02T04:08:11.255Z,10.84
2019-04-02T04:09:10.769Z,10.83
2019-04-02T04:10:11.384Z,10.83
2019-04-02T04:11:12.512Z,10.82
2019-04-02T04:12:13.101Z,10.84
2019-04-02T04:13:13.738Z,10.84
2019-04-02T04:14:10.205Z,10.84
2019-04-02T04:15:10.250Z,10.83
2019-04-02T04:16:12.101Z,10.84
2019-04-02T04:17:10.201Z,10.76
2019-04-02T04:18:10.234Z,10.79
2019-04-02T04:19:10.308Z,10.76
2019-04-02T04:20:10.154Z,10.79
2019-04-02T04:21:10.242Z,10.8
2019-04-02T04:22:11.068Z,10.76
2019-04-02T04:23:10.262Z,10.75
2019-04-02T04:24:10.232Z,10.75
2019-04-02T04:25:10.181Z,10.72
2019-04-02T04:26:10.190Z,10.75
2019-04-02T04:27:10.283Z,10.72
2019-04-02T04:28:10.542Z,10.72
2019-04-02T04:29:10.368Z,10.72
2019-04-02T04:30:10.199Z,10.69
2019-04-02T04:31:10.152Z,10.65
2019-04-02T04:32:10.575Z,10.65
2019-04-02T04:33:10.321Z,10.64
2019-04-02T04:34:13.174Z,10.61
2019-04-02T04:35:11.054Z,10.65
2019-04-02T04:36:11.927Z,10.64
2019-04-02T04:37:11.935Z,10.62
2019-04-02T04:38:12.658Z,10.65
2019-04-02T04:39:15.862Z,10.65
2019-04-02T04:40:10.348Z,10.68
2019-04-02T04:41:10.121Z,10.66
2019-04-02T04:42:10.122Z,10.62
2019-04-02T04:43:10.310Z,10.61
2019-04-02T04:44:10.193Z,10.61
2019-04-02T04:45:10.172Z,10.59
2019-04-02T04:46:10.175Z,10.55
2019-04-02T04:47:10.170Z,10.56
2019-04-02T04:48:10.143Z,10.58
2019-04-02T04:49:10.243Z,10.56
2019-04-02T04:50:10.246Z,10.56
2019-04-02T04:51:10.162Z,10.53
2019-04-02T04:52:10.126Z,10.47
2019-04-02T04:53:10.169Z,10.49
2019-04-02T04:54:10.601Z,10.45
2019-04-02T04:55:10.645Z,10.42
2019-04-02T04:56:10.136Z,10.45
2019-04-02T04:57:10.171Z,10.42
2019-04-02T04:58:10.403Z,10.44
2019-04-02T04:59:10.158Z,10.45
2019-04-02T05:00:10.134Z,10.41
2019-04-02T05:01:10.128Z,10.35
2019-04-02T05:02:10.285Z,10.34
2019-04-02T05:03:10.129Z,10.34
2019-04-02T05:04:10.146Z,10.32
2019-04-02T05:05:10.127Z,10.35
2019-04-02T05:06:10.141Z,10.3
2019-04-02T05:07:10.133Z,10.34
2019-04-02T05:08:10.148Z,10.34
2019-04-02T05:09:13.262Z,10.34
2019-04-02T05:10:10.133Z,10.32
2019-04-02T05:11:10.195Z,10.35
2019-04-02T05:12:10.104Z,10.34
2019-04-02T05:13:10.091Z,10.31
2019-04-02T05:14:17.165Z,10.37
2019-04-02T05:15:10.113Z,10.32
2019-04-02T05:16:10.526Z,10.3
2019-04-02T05:17:10.091Z,10.3
2019-04-02T05:18:10.077Z,10.31
2019-04-02T05:19:10.510Z,10.28
2019-04-02T05:20:10.110Z,10.28
2019-04-02T05:21:10.152Z,10.24
2019-04-02T05:22:10.103Z,10.24
2019-04-02T05:23:12.141Z,10.23
2019-04-02T05:24:13.278Z,10.24
2019-04-02T05:25:12.361Z,10.25
2019-04-02T05:26:11.040Z,10.28
2019-04-02T05:27:11.113Z,10.31
2019-04-02T05:28:10.111Z,10.32
2019-04-02T05:29:10.096Z,10.32
2019-04-02T05:30:10.055Z,10.35
2019-04-02T05:31:10.059Z,10.34
2019-04-02T05:32:10.056Z,10.38
2019-04-02T05:33:10.077Z,10.41
2019-04-02T05:34:10.116Z,10.39
2019-04-02T05:35:10.061Z,10.42
2019-04-02T05:36:10.041Z,10.42
2019-04-02T05:37:10.467Z,10.38
2019-04-02T05:38:10.368Z,10.38
2019-04-02T05:39:10.101Z,10.37
2019-04-02T05:40:10.076Z,10.35
2019-04-02T05:41:10.109Z,10.37
2019-04-02T05:42:12.762Z,10.39
2019-04-02T05:43:10.867Z,10.37
2019-04-02T05:44:10.207Z,10.38
2019-04-02T05:45:10.290Z,10.37
2019-04-02T05:46:10.728Z,10.35
2019-04-02T05:47:10.099Z,10.39
2019-04-02T05:48:10.024Z,10.34
2019-04-02T05:49:10.110Z,10.34
2019-04-02T05:50:10.055Z,10.34
2019-04-02T05:51:10.068Z,10.37
2019-04-02T05:52:10.022Z,10.38
2019-04-02T05:53:10.105Z,10.39
2019-04-02T05:54:11.172Z,10.38
2019-04-02T05:55:10.065Z,10.41
2019-04-02T05:56:10.062Z,10.42
2019-04-02T05:57:10.265Z,10.42
2019-04-02T05:58:10.091Z,10.41
2019-04-02T05:59:10.610Z,10.42
2019-04-02T06:00:10.042Z,10.45
2019-04-02T06:01:10.185Z,10.44
2019-04-02T06:02:10.070Z,10.45
2019-04-02T06:03:11.896Z,10.45
2019-04-02T06:04:11.802Z,10.49
2019-04-02T06:05:10.179Z,10.42
2019-04-02T06:06:10.047Z,10.45
2019-04-02T06:07:10.067Z,10.45
2019-04-02T06:08:10.013Z,10.44
2019-04-02T06:09:10.015Z,10.44
2019-04-02T06:10:10.041Z,10.48
2019-04-02T06:11:10.063Z,10.47
2019-04-02T06:12:10.035Z,10.45
2019-04-02T06:13:10.003Z,10.48
2019-04-02T06:14:10.084Z,10.48
2019-04-02T06:15:10.029Z,10.47
2019-04-02T06:16:10.048Z,10.49
2019-04-02T06:17:10.063Z,10.51
2019-04-02T06:18:10.095Z,10.52
2019-04-02T06:19:09.998Z,10.56
2019-04-02T06:20:10.232Z,10.55
2019-04-02T06:21:11.834Z,10.56
2019-04-02T06:22:09.967Z,10.59
2019-04-02T06:23:15.345Z,10.59
2019-04-02T06:24:10.087Z,10.61
2019-04-02T06:25:10.020Z,10.53
2019-04-02T06:26:10.006Z,10.53
2019-04-02T06:27:10.083Z,10.55
2019-04-02T06:28:09.966Z,10.52
2019-04-02T06:29:09.987Z,10.55
2019-04-02T06:30:10.013Z,10.55
2019-04-02T06:31:10.007Z,10.56
2019-04-02T06:32:10.021Z,10.59
2019-04-02T06:33:10.100Z,10.58
2019-04-02T06:34:10.337Z,10.62
2019-04-02T06:35:10.023Z,10.64
2019-04-02T06:36:09.954Z,10.62
2019-04-02T06:37:09.988Z,10.65
2019-04-02T06:38:09.969Z,10.66
2019-04-02T06:39:09.961Z,10.66
2019-04-02T06:40:09.996Z,10.69
2019-04-02T06:41:09.993Z,10.71
2019-04-02T06:42:13.681Z,10.72
2019-04-02T06:43:10.093Z,10.75
2019-04-02T06:44:10.000Z,10.76
2019-04-02T06:45:09.985Z,10.82
2019-04-02T06:46:09.991Z,10.83
2019-04-02T06:47:10.000Z,10.86
2019-04-02T06:48:10.027Z,10.86
2019-04-02T06:49:10.008Z,10.89
2019-04-02T06:50:10.355Z,10.89
2019-04-02T06:51:09.997Z,10.89
2019-04-02T06:52:10.042Z,10.9
2019-04-02T06:53:09.948Z,10.92
2019-04-02T06:54:09.968Z,10.94
2019-04-02T06:55:09.992Z,10.96
2019-04-02T06:56:10.030Z,10.96
2019-04-02T06:57:09.965Z,10.99
2019-04-02T06:58:10.016Z,11
2019-04-02T06:59:09.975Z,11.01
2019-04-02T07:00:13.308Z,11.04
2019-04-02T07:01:32.981Z,11.08
2019-04-02T07:02:09.988Z,11.1
2019-04-02T07:03:09.964Z,11.15
2019-04-02T07:04:10.010Z,11.17
2019-04-02T07:05:09.952Z,11.14
2019-04-02T07:06:09.923Z,11.18
2019-04-02T07:07:12.431Z,11.2
2019-04-02T07:08:15.719Z,11.24
2019-04-02T07:09:10.415Z,11.25
2019-04-02T07:10:10.055Z,11.25
2019-04-02T07:11:09.945Z,11.28
2019-04-02T07:12:10.029Z,11.3
2019-04-02T07:13:09.993Z,11.32
2019-04-02T07:14:09.922Z,11.35
2019-04-02T07:15:09.991Z,11.35
2019-04-02T07:16:09.993Z,11.37
2019-04-02T07:17:09.947Z,11.38
2019-04-02T07:18:09.922Z,11.41
2019-04-02T07:19:09.917Z,11.44
2019-04-02T07:20:09.980Z,11.45
2019-04-02T07:21:09.891Z,11.51
2019-04-02T07:22:09.937Z,11.49
2019-04-02T07:23:09.926Z,11.55
2019-04-02T07:24:09.910Z,11.56
2019-04-02T07:25:09.911Z,11.62
2019-04-02T07:26:10.104Z,11.62
2019-04-02T07:27:11.866Z,11.66
2019-04-02T07:28:12.990Z,11.65
2019-04-02T07:29:09.949Z,11.68
2019-04-02T07:30:09.905Z,11.64
2019-04-02T07:31:10.006Z,11.69
2019-04-02T07:32:09.930Z,11.7
2019-04-02T07:33:09.928Z,11.7
2019-04-02T07:34:09.947Z,11.69
2019-04-02T07:35:10.053Z,11.72
2019-04-02T07:36:09.995Z,11.72
2019-04-02T07:37:09.932Z,11.73
2019-04-02T07:38:10.003Z,11.76
2019-04-02T07:39:09.906Z,11.8
2019-04-02T07:40:09.954Z,11.84
2019-04-02T07:41:12.460Z,11.84
2019-04-02T07:42:09.916Z,11.9
2019-04-02T07:43:09.944Z,11.9
2019-04-02T07:44:10.022Z,11.94
2019-04-02T07:45:11.010Z,12
2019-04-02T07:46:09.957Z,12.03
2019-04-02T07:47:10.342Z,12.08
2019-04-02T07:48:10.526Z,12.13
2019-04-02T07:49:09.924Z,12.17
2019-04-02T07:50:09.915Z,12.2
2019-04-02T07:51:09.969Z,12.21
2019-04-02T07:52:09.888Z,12.25
2019-04-02T07:53:09.898Z,12.24
2019-04-02T07:54:09.892Z,12.25
2019-04-02T07:55:09.879Z,12.28
2019-04-02T07:56:09.891Z,12.29
2019-04-02T07:57:09.901Z,12.35
2019-04-02T07:58:09.908Z,12.35
2019-04-02T07:59:11.652Z,12.38
2019-04-02T08:00:10.877Z,12.39
2019-04-02T08:01:09.856Z,12.35
2019-04-02T08:02:09.907Z,12.38
2019-04-02T08:03:09.881Z,12.39
2019-04-02T08:04:09.948Z,12.39
2019-04-02T08:05:09.873Z,12.42
2019-04-02T08:06:09.900Z,12.46
2019-04-02T08:07:09.848Z,12.51
2019-04-02T08:08:09.892Z,12.49
2019-04-02T08:09:10.760Z,12.55
2019-04-02T08:10:10.503Z,12.59
2019-04-02T08:11:09.995Z,12.6
2019-04-02T08:12:09.852Z,12.65
2019-04-02T08:13:09.835Z,12.72
2019-04-02T08:14:09.939Z,12.76
2019-04-02T08:15:09.842Z,12.82
2019-04-02T08:16:09.924Z,12.88
2019-04-02T08:17:09.822Z,12.91
2019-04-02T08:18:09.893Z,12.88
2019-04-02T08:19:09.903Z,12.88
2019-04-02T08:20:10.765Z,12.93
2019-04-02T08:21:09.881Z,12.93
2019-04-02T08:22:09.899Z,13
2019-04-02T08:23:09.897Z,13.03
2019-04-02T08:24:09.900Z,13.04
2019-04-02T08:25:09.909Z,13.06
2019-04-02T08:26:09.837Z,13.13
2019-04-02T08:27:09.938Z,13.19
2019-04-02T08:28:13.217Z,13.24
2019-04-02T08:29:09.843Z,13.28
2019-04-02T08:30:09.844Z,13.29
2019-04-02T08:31:10.617Z,13.35
2019-04-02T08:32:09.822Z,13.35
2019-04-02T08:33:09.857Z,13.39
2019-04-02T08:34:12.304Z,13.46
2019-04-02T08:35:09.872Z,13.46
2019-04-02T08:36:09.883Z,13.47
2019-04-02T08:37:09.839Z,13.52
2019-04-02T08:38:09.929Z,13.53
2019-04-02T08:39:09.875Z,13.53
2019-04-02T08:40:09.844Z,13.59
2019-04-02T08:41:09.866Z,13.64
2019-04-02T08:42:09.822Z,13.64
2019-04-02T08:43:09.819Z,13.72
2019-04-02T08:44:09.888Z,13.77
2019-04-02T08:45:09.837Z,13.79
2019-04-02T08:46:09.853Z,13.82
2019-04-02T08:47:09.760Z,13.82
2019-04-02T08:48:09.873Z,13.86
2019-04-02T08:49:09.851Z,13.91
2019-04-02T08:50:09.801Z,13.93
2019-04-02T08:51:09.890Z,13.93
2019-04-02T08:52:10.132Z,13.97
2019-04-02T08:53:10.777Z,14.01
2019-04-02T08:54:09.779Z,14.04
2019-04-02T08:55:09.812Z,14.07
2019-04-02T08:56:09.810Z,14.11
2019-04-02T08:57:09.771Z,14.15
2019-04-02T08:58:09.820Z,14.15
2019-04-02T08:59:09.796Z,14.22
2019-04-02T09:00:09.791Z,14.28
2019-04-02T09:01:09.795Z,14.29
2019-04-02T09:02:11.997Z,14.32
2019-04-02T09:03:09.829Z,14.35
2019-04-02T09:04:09.912Z,14.33
2019-04-02T09:05:09.787Z,14.33
2019-04-02T09:06:12.309Z,14.35
2019-04-02T09:07:09.822Z,14.4
2019-04-02T09:08:09.790Z,14.35
2019-04-02T09:09:09.853Z,14.4
2019-04-02T09:10:09.782Z,14.4
2019-04-02T09:11:09.795Z,14.42
2019-04-02T09:12:09.825Z,14.46
2019-04-02T09:13:12.253Z,14.49
2019-04-02T09:14:10.218Z,14.51
2019-04-02T09:15:09.774Z,14.53
2019-04-02T09:16:09.751Z,14.55
2019-04-02T09:17:09.759Z,14.62
2019-04-02T09:18:09.830Z,14.69
2019-04-02T09:19:09.840Z,14.74
2019-04-02T09:20:09.778Z,14.79
2019-04-02T09:21:09.760Z,14.81
2019-04-02T09:22:09.783Z,14.81
2019-04-02T09:23:09.760Z,14.86
2019-04-02T09:24:09.783Z,14.92
2019-04-02T09:25:09.823Z,14.95
2019-04-02T09:26:18.999Z,14.97
2019-04-02T09:27:09.756Z,15.05
2019-04-02T09:28:09.821Z,15.12
2019-04-02T09:29:12.774Z,15.18
2019-04-02T09:30:09.810Z,15.17
2019-04-02T09:31:12.068Z,15.25
2019-04-02T09:32:09.736Z,15.25
2019-04-02T09:33:09.810Z,15.25
2019-04-02T09:34:12.465Z,15.21
2019-04-02T09:35:10.148Z,15.23
2019-04-02T09:36:09.855Z,15.26
2019-04-02T09:37:09.730Z,15.32
2019-04-02T09:38:09.805Z,15.38
2019-04-02T09:39:09.754Z,15.39
2019-04-02T09:40:09.837Z,15.42
2019-04-02T09:41:09.794Z,15.46
2019-04-02T09:42:09.743Z,15.47
2019-04-02T09:43:09.783Z,15.47
2019-04-02T09:44:11.989Z,15.57
2019-04-02T09:45:10.342Z,15.63
2019-04-02T09:46:09.733Z,15.69
2019-04-02T09:47:09.736Z,15.81
2019-04-02T09:48:09.697Z,15.9
2019-04-02T09:49:12.679Z,16.05
2019-04-02T09:50:09.711Z,16.09
2019-04-02T09:51:09.748Z,16.14
2019-04-02T09:52:09.708Z,16.11
2019-04-02T09:53:09.708Z,16.09
2019-04-02T09:54:09.727Z,16.11
2019-04-02T09:55:09.715Z,16.19
2019-04-02T09:56:09.743Z,16.24
2019-04-02T09:57:09.717Z,16.35
2019-04-02T09:58:09.741Z,16.33
2019-04-02T09:59:11.077Z,16.36
2019-04-02T10:00:09.756Z,16.4
2019-04-02T10:01:09.709Z,16.45
2019-04-02T10:02:09.691Z,16.5
2019-04-02T10:03:09.804Z,16.54
2019-04-02T10:04:09.712Z,16.59
2019-04-02T10:05:09.705Z,16.63
2019-04-02T10:06:09.764Z,16.67
2019-04-02T10:07:09.706Z,16.73
2019-04-02T10:08:09.693Z,16.77
2019-04-02T10:09:09.764Z,16.84
2019-04-02T10:10:09.801Z,16.98
2019-04-02T10:11:09.696Z,16.99
2019-04-02T10:12:09.682Z,17.05
2019-04-02T10:13:09.718Z,17.12
2019-04-02T10:14:09.662Z,17.18
2019-04-02T10:15:09.690Z,17.21
2019-04-02T10:16:11.796Z,17.25
2019-04-02T10:17:09.707Z,17.25
2019-04-02T10:18:10.291Z,17.29
2019-04-02T10:19:09.701Z,17.36
2019-04-02T10:20:09.724Z,17.37
2019-04-02T10:21:09.660Z,17.4
2019-04-02T10:22:09.722Z,17.43
2019-04-02T10:23:09.701Z,17.4
2019-04-02T10:24:09.767Z,17.42
2019-04-02T10:25:09.731Z,17.46
2019-04-02T10:26:09.684Z,17.53
2019-04-02T10:27:09.682Z,17.56
2019-04-02T10:28:09.683Z,17.52
2019-04-02T10:29:09.672Z,17.54
2019-04-02T10:30:09.659Z,17.61
2019-04-02T10:31:09.692Z,17.67
2019-04-02T10:32:09.686Z,17.76
2019-04-02T10:33:09.650Z,17.78
2019-04-02T10:34:09.714Z,17.82
2019-04-02T10:35:09.700Z,17.84
2019-04-02T10:36:09.654Z,17.87
2019-04-02T10:37:09.695Z,17.92
2019-04-02T10:38:09.663Z,17.97
2019-04-02T10:39:09.652Z,17.88
2019-04-02T10:40:09.938Z,17.95
2019-04-02T10:41:09.676Z,17.98
2019-04-02T10:42:09.711Z,18.02
2019-04-02T10:43:09.693Z,18.01
2019-04-02T10:44:09.655Z,18.04
2019-04-02T10:45:09.664Z,18.11
2019-04-02T10:46:09.637Z,18.09
2019-04-02T10:47:09.625Z,18.12
2019-04-02T10:48:09.879Z,18.12
2019-04-02T10:49:12.191Z,18.13
2019-04-02T10:50:09.690Z,18.12
2019-04-02T10:51:09.664Z,18.11
2019-04-02T10:52:09.672Z,18.11
2019-04-02T10:53:09.641Z,18.16
2019-04-02T10:54:09.735Z,18.2
2019-04-02T10:55:09.684Z,18.26
2019-04-02T10:56:09.648Z,18.3
2019-04-02T10:57:09.655Z,18.33
2019-04-02T10:58:12.309Z,18.3
2019-04-02T10:59:13.051Z,18.37
2019-04-02T11:00:09.700Z,18.35
2019-04-02T11:01:11.720Z,18.35
2019-04-02T11:02:09.637Z,18.36
2019-04-02T11:03:09.726Z,18.36
2019-04-02T11:04:09.624Z,18.33
2019-04-02T11:05:09.669Z,18.26
2019-04-02T11:06:09.644Z,18.16
2019-04-02T11:07:14.328Z,18.12
2019-04-02T11:08:09.706Z,18.16
2019-04-02T11:09:09.757Z,18.15
2019-04-02T11:10:09.708Z,18.2
2019-04-02T11:11:09.635Z,18.22
2019-04-02T11:12:09.667Z,18.29
2019-04-02T11:13:12.322Z,18.33
2019-04-02T11:14:13.298Z,18.4
2019-04-02T11:15:09.630Z,18.49
2019-04-02T11:16:09.862Z,18.57
2019-04-02T11:17:09.605Z,18.61
2019-04-02T11:18:09.600Z,18.66
2019-04-02T11:19:09.727Z,18.67
2019-04-02T11:20:09.599Z,18.7
2019-04-02T11:21:09.697Z,18.71
2019-04-02T11:22:09.861Z,18.63
2019-04-02T11:23:09.905Z,18.68
2019-04-02T11:24:09.674Z,18.72
2019-04-02T11:25:09.688Z,18.78
2019-04-02T11:26:09.702Z,18.84
2019-04-02T11:27:09.604Z,18.94
2019-04-02T11:28:09.566Z,18.95
2019-04-02T11:29:09.593Z,19.03
2019-04-02T11:30:09.638Z,19.02
2019-04-02T11:31:09.603Z,19.05
2019-04-02T11:32:09.698Z,19.12
2019-04-02T11:33:09.642Z,19.16
2019-04-02T11:34:09.830Z,19.27
2019-04-02T11:35:09.605Z,19.37
2019-04-02T11:36:09.759Z,19.42
2019-04-02T11:37:15.393Z,19.47
2019-04-02T11:38:09.625Z,19.53
2019-04-02T11:39:09.655Z,19.65
2019-04-02T11:40:09.667Z,19.75
2019-04-02T11:41:09.596Z,19.79
2019-04-02T11:42:09.594Z,19.81
2019-04-02T11:43:09.672Z,19.78
2019-04-02T11:44:10.218Z,19.81
2019-04-02T11:45:09.820Z,19.84
2019-04-02T11:46:09.600Z,19.81
2019-04-02T11:47:09.614Z,19.84
2019-04-02T11:48:09.606Z,19.86
2019-04-02T11:49:09.567Z,19.93
2019-04-02T11:50:09.588Z,20.01
2019-04-02T11:51:10.203Z,20.09
2019-04-02T11:52:09.973Z,20.17
2019-04-02T11:53:09.927Z,20.17
2019-04-02T11:54:23.535Z,20.24
2019-04-02T11:55:09.577Z,20.16
2019-04-02T11:56:09.586Z,20.16
2019-04-02T11:57:10.120Z,20.22
2019-04-02T11:58:17.586Z,20.19
2019-04-02T11:59:09.621Z,20.27
2019-04-02T12:00:09.591Z,20.32
2019-04-02T12:01:09.569Z,20.36
2019-04-02T12:02:09.693Z,20.41
2019-04-02T12:03:09.555Z,20.48
2019-04-02T12:04:11.672Z,20.55
2019-04-02T12:05:21.646Z,20.57
2019-04-02T12:06:09.932Z,20.55
2019-04-02T12:07:11.233Z,20.6
2019-04-02T12:08:18.715Z,20.6
2019-04-02T12:10:09.534Z,20.62
2019-04-02T12:11:09.539Z,20.54
2019-04-02T12:12:09.589Z,20.58
2019-04-02T12:13:09.621Z,20.58
2019-04-02T12:14:09.554Z,20.55
2019-04-02T12:15:09.579Z,20.61
2019-04-02T12:16:09.541Z,20.7
2019-04-02T12:17:09.605Z,20.68
2019-04-02T12:18:09.678Z,20.68
2019-04-02T12:19:10.299Z,20.77
2019-04-02T12:20:09.528Z,20.72
2019-04-02T12:21:12.295Z,20.67
2019-04-02T12:22:12.250Z,20.7
2019-04-02T12:23:09.527Z,20.72
2019-04-02T12:24:12.522Z,20.79
2019-04-02T12:25:11.530Z,20.81
2019-04-02T12:26:09.653Z,20.84
2019-04-02T12:27:09.544Z,20.89
2019-04-02T12:28:10.689Z,20.92
2019-04-02T12:29:09.540Z,20.88
2019-04-02T12:30:09.529Z,20.88
2019-04-02T12:31:09.528Z,20.94
2019-04-02T12:32:09.514Z,20.94
2019-04-02T12:33:09.539Z,20.96
2019-04-02T12:34:11.304Z,20.98
2019-04-02T12:35:09.527Z,20.98
2019-04-02T12:36:12.279Z,20.92
2019-04-02T12:37:12.160Z,20.89
2019-04-02T12:38:12.512Z,20.81
2019-04-02T12:39:12.741Z,20.75
2019-04-02T12:40:11.946Z,20.75
2019-04-02T12:41:10.281Z,20.74
2019-04-02T12:42:11.238Z,20.78
2019-04-02T12:43:09.527Z,20.74
2019-04-02T12:44:09.519Z,20.74
2019-04-02T12:45:09.531Z,20.79
2019-04-02T12:46:09.532Z,20.88
2019-04-02T12:47:09.495Z,20.84
2019-04-02T12:48:09.500Z,20.88
2019-04-02T12:49:09.618Z,20.82
2019-04-02T12:50:09.559Z,20.82
2019-04-02T12:51:10.718Z,20.85
2019-04-02T12:52:11.483Z,20.87
2019-04-02T12:53:09.517Z,20.88
2019-04-02T12:54:09.508Z,20.91
2019-04-02T12:55:09.529Z,20.88
2019-04-02T12:56:09.502Z,20.87